Time;durP1;ratioP1;P1;durP2;ratioP2;P2;SDS_P1;SDS_P2;PMS_P1;PMS_P2;Temp;Humidity;BMP_temperature;BMP_pressure;BME280_temperature;BME280_humidity;BME280_pressure;Samples;Min_cycle;Max_cycle;Signal;HPM_P1;HPM_P2
2023/03/27 00:00:31;;;;;;;11.88;2.42;;;;;;;2.54;100.00;-18095.97;4990425;28;20045;-86
2023/03/27 00:02:57;;;;;;;9.48;2.28;;;;;;;2.54;100.00;-18095.97;4994018;28;20280;-86
2023/03/27 00:05:23;;;;;;;13.93;3.55;;;;;;;2.53;100.00;-18095.69;4993192;28;20049;-87
2023/03/27 00:07:54;;;;;;;11.52;2.63;;;;;;;2.51;100.00;-18095.16;4993985;28;20042;-84
2023/03/27 00:10:22;;;;;;;10.45;2.55;;;;;;;2.48;100.00;-18094.44;4991510;28;20042;-84
2023/03/27 00:12:48;;;;;;;12.00;2.63;;;;;;;2.46;100.00;-18093.91;5003719;28;20093;-84
2023/03/27 00:15:15;;;;;;;14.82;2.83;;;;;;;2.44;100.00;-18093.47;4988098;28;20108;-84
2023/03/27 00:17:45;;;;;;;13.25;2.85;;;;;;;2.54;100.00;-18095.97;4994452;28;20039;-85
2023/03/27 00:20:12;;;;;;;10.23;2.22;;;;;;;2.44;100.00;-18093.47;4992053;28;20493;-84
2023/03/27 00:22:38;;;;;;;12.52;2.47;;;;;;;2.47;100.00;-18094.31;4990903;28;20077;-84
2023/03/27 00:25:04;;;;;;;12.43;2.83;;;;;;;2.42;100.00;-18092.94;5008516;28;20696;-84
2023/03/27 00:27:29;;;;;;;9.15;2.25;;;;;;;2.40;100.00;-18092.38;5006531;28;20133;-84
2023/03/27 00:29:55;;;;;;;10.45;3.58;;;;;;;2.34;100.00;-18090.56;4984481;28;20039;-85
2023/03/27 00:32:20;;;;;;;7.10;2.67;;;;;;;2.29;100.00;-18089.19;4992389;28;20053;-84
2023/03/27 00:34:46;;;;;;;14.07;3.13;;;;;;;2.19;100.00;-18086.72;5009272;28;20050;-85
2023/03/27 00:37:11;;;;;;;9.88;2.90;;;;;;;2.20;100.00;-18086.84;5007961;28;20106;-84
2023/03/27 00:39:38;;;;;;;11.95;2.33;;;;;;;2.22;100.00;-18087.41;5008790;28;20057;-84
2023/03/27 00:42:04;;;;;;;10.02;2.35;;;;;;;2.25;100.00;-18088.22;4983699;28;20047;-84
2023/03/27 00:44:33;;;;;;;10.63;2.78;;;;;;;2.18;100.00;-18086.28;4988072;28;20044;-84
2023/03/27 00:47:01;;;;;;;12.32;3.03;;;;;;;2.21;100.00;-18087.25;4986690;28;20125;-84
2023/03/27 00:49:30;;;;;;;13.60;3.25;;;;;;;2.15;100.00;-18085.59;5003946;28;20213;-84
2023/03/27 00:51:57;;;;;;;;;;;;;;;2.14;100.00;-18085.19;4995029;28;20034;-84
2023/03/27 00:54:28;;;;;;;12.73;2.55;;;;;;;2.03;100.00;-18082.28;5008393;28;19918;-85
2023/03/27 00:56:57;;;;;;;9.82;2.70;;;;;;;1.96;100.00;-18080.47;5004052;28;20061;-85
2023/03/27 00:59:29;;;;;;;9.60;2.80;;;;;;;1.99;100.00;-18081.31;4997871;28;20062;-85
2023/03/27 01:01:56;;;;;;;8.23;2.92;;;;;;;2.02;100.00;-18082.00;4989420;28;20101;-84
2023/03/27 01:04:22;;;;;;;8.40;2.72;;;;;;;2.00;100.00;-18081.44;4994104;28;20564;-84
2023/03/27 01:06:51;;;;;;;10.82;3.15;;;;;;;2.07;100.00;-18083.25;4994997;28;20046;-84
2023/03/27 01:09:17;;;;;;;14.32;3.38;;;;;;;2.12;100.00;-18084.75;5008820;28;20049;-85
2023/03/27 01:12:17;;;;;;;11.48;3.28;;;;;;;2.05;100.00;-18082.69;5004642;28;20050;-85
2023/03/27 01:15:15;;;;;;;8.13;2.08;;;;;;;1.96;100.00;-18080.47;4993208;28;20068;-84
2023/03/27 01:17:59;;;;;;;11.55;2.75;;;;;;;1.85;100.00;-18077.44;4989306;28;20073;-85
2023/03/27 01:20:31;;;;;;;8.27;2.47;;;;;;;1.72;100.00;-18073.84;4991360;28;20045;-85
2023/03/27 01:22:59;;;;;;;11.63;2.78;;;;;;;1.85;100.00;-18077.28;4994428;28;20121;-84
2023/03/27 01:25:49;;;;;;;9.97;3.00;;;;;;;1.78;100.00;-18075.63;5009693;28;20081;-85
2023/03/27 01:28:50;;;;;;;10.45;2.75;;;;;;;1.73;100.00;-18074.13;4987169;28;20623;-84
2023/03/27 01:31:42;;;;;;;10.80;2.38;;;;;;;1.74;100.00;-18074.38;5002535;28;20611;-84
2023/03/27 01:34:14;;;;;;;11.73;2.42;;;;;;;1.75;100.00;-18074.81;4983381;28;20039;-84
2023/03/27 01:37:12;;;;;;;8.70;2.78;;;;;;;1.76;100.00;-18075.09;5013726;28;20125;-85
2023/03/27 01:39:45;;;;;;;14.25;2.75;;;;;;;1.73;100.00;-18074.13;4967869;28;20046;-85
2023/03/27 01:42:17;;;;;;;11.07;2.50;;;;;;;1.69;100.00;-18073.16;4993872;28;20480;-84
2023/03/27 01:44:49;;;;;;;11.15;3.13;;;;;;;1.70;100.00;-18073.41;4989511;28;20046;-84
2023/03/27 01:47:20;;;;;;;6.30;2.50;;;;;;;1.71;100.00;-18073.69;4991975;28;20517;-83
2023/03/27 01:49:54;;;;;;;9.15;2.85;;;;;;;1.67;100.00;-18072.59;4992607;28;20102;-84
2023/03/27 01:52:26;;;;;;;10.45;2.72;;;;;;;1.66;100.00;-18072.19;4992777;28;20043;-84
2023/03/27 01:54:57;;;;;;;14.18;2.97;;;;;;;1.62;100.00;-18071.06;4994808;28;20065;-85
2023/03/27 01:57:27;;;;;;;10.48;2.83;;;;;;;1.57;100.00;-18069.81;4990731;28;20471;-85
2023/03/27 02:00:14;;;;;;;8.63;3.00;;;;;;;1.51;100.00;-18068.31;4991768;28;20039;-84
2023/03/27 02:02:43;;;;;;;10.70;2.85;;;;;;;1.53;100.00;-18068.84;4983684;28;20053;-84
2023/03/27 02:05:18;;;;;;;10.98;2.75;;;;;;;1.54;100.00;-18069.00;5009346;28;20592;-85
2023/03/27 02:07:51;;;;;;;10.73;2.70;;;;;;;1.55;100.00;-18069.41;4993341;28;20105;-84
2023/03/27 02:10:23;;;;;;;13.45;2.95;;;;;;;1.52;100.00;-18068.56;5004979;28;20076;-85
2023/03/27 02:12:56;;;;;;;9.57;2.88;;;;;;;1.49;100.00;-18067.75;4986457;28;20050;-84
2023/03/27 02:15:29;;;;;;;9.32;2.85;;;;;;;1.44;100.00;-18066.38;4991492;28;20064;-84
2023/03/27 02:18:09;;;;;;;11.15;3.67;;;;;;;1.46;100.00;-18066.78;4994542;28;20050;-85
2023/03/27 02:20:37;;;;;;;15.70;3.50;;;;;;;1.39;100.00;-18064.97;5004312;28;20046;-84
2023/03/27 02:23:03;;;;;;;10.75;2.45;;;;;;;1.42;100.00;-18065.81;4987152;28;20049;-85
2023/03/27 02:25:35;;;;;;;8.35;2.95;;;;;;;1.38;100.00;-18064.69;4997064;28;20050;-84
2023/03/27 02:28:28;;;;;;;12.45;3.30;;;;;;;1.31;100.00;-18062.75;4990520;28;20046;-84
2023/03/27 02:31:22;;;;;;;9.02;2.70;;;;;;;1.35;100.00;-18063.88;5000985;28;20433;-85
2023/03/27 02:34:39;;;;;;;6.93;2.60;;;;;;;1.37;100.00;-18064.44;5001500;28;20046;-84
2023/03/27 02:37:24;;;;;;;12.25;3.08;;;;;;;1.33;100.00;-18063.31;4968884;28;20184;-85
2023/03/27 02:39:59;;;;;;;9.68;3.13;;;;;;;1.29;100.00;-18062.22;4990143;28;20124;-85
2023/03/27 02:42:46;;;;;;;12.40;3.05;;;;;;;1.42;100.00;-18065.81;4989712;28;20088;-85
2023/03/27 02:45:22;;;;;;;13.60;3.28;;;;;;;1.46;100.00;-18066.78;5007178;28;20034;-84
2023/03/27 02:47:55;;;;;;;8.57;2.40;;;;;;;1.34;100.00;-18063.59;4991238;28;20046;-84
2023/03/27 02:50:28;;;;;;;8.02;2.10;;;;;;;1.34;100.00;-18063.72;4990422;28;20050;-85
2023/03/27 02:53:00;;;;;;;8.40;2.40;;;;;;;1.33;100.00;-18063.31;5008395;28;20617;-85
2023/03/27 02:55:34;;;;;;;9.25;3.40;;;;;;;1.38;100.00;-18064.69;4987778;28;20042;-85
2023/03/27 02:58:05;;;;;;;12.85;2.92;;;;;;;1.40;100.00;-18065.13;4994172;28;20077;-85
2023/03/27 03:00:39;;;;;;;10.40;2.95;;;;;;;1.34;100.00;-18063.59;5012262;28;20082;-85
2023/03/27 03:03:07;;;;;;;5.93;2.47;;;;;;;1.40;100.00;-18065.13;5002813;28;20062;-86
2023/03/27 03:05:36;;;;;;;11.63;3.22;;;;;;;1.46;100.00;-18066.91;4996956;28;20092;-84
2023/03/27 03:08:02;;;;;;;13.77;3.83;;;;;;;1.47;100.00;-18067.19;4995359;28;20105;-85
2023/03/27 03:10:27;;;;;;;8.15;2.92;;;;;;;1.43;100.00;-18065.94;4998288;28;20054;-84
2023/03/27 03:12:53;;;;;;;9.27;3.40;;;;;;;1.34;100.00;-18063.72;5000227;28;20080;-85
2023/03/27 03:15:18;;;;;;;12.75;3.25;;;;;;;1.42;100.00;-18065.66;5003111;28;20068;-85
2023/03/27 03:17:44;;;;;;;11.27;2.67;;;;;;;1.35;100.00;-18063.88;5002360;28;20038;-84
2023/03/27 03:20:11;;;;;;;8.43;2.72;;;;;;;1.43;100.00;-18065.94;4998743;28;20058;-84
2023/03/27 03:22:38;;;;;;;11.88;3.75;;;;;;;1.38;100.00;-18064.69;4999509;28;20054;-84
2023/03/27 03:25:05;;;;;;;14.43;2.75;;;;;;;1.38;100.00;-18064.69;5002056;28;20057;-86
2023/03/27 03:27:30;;;;;;;6.95;2.95;;;;;;;1.33;100.00;-18063.31;5017881;28;20056;-84
2023/03/27 03:29:55;;;;;;;11.20;3.17;;;;;;;1.38;100.00;-18064.69;4999688;28;20062;-84
2023/03/27 03:32:21;;;;;;;8.68;3.00;;;;;;;1.34;100.00;-18063.72;5003033;28;20057;-85
2023/03/27 03:34:47;;;;;;;10.60;3.03;;;;;;;1.33;100.00;-18063.47;5001653;28;20229;-84
2023/03/27 03:37:12;;;;;;;12.70;3.20;;;;;;;1.35;100.00;-18064.00;5002577;28;20690;-84
2023/03/27 03:39:38;;;;;;;10.55;2.72;;;;;;;1.30;100.00;-18062.63;4995937;28;20046;-84
2023/03/27 03:42:03;;;;;;;9.98;3.13;;;;;;;1.35;100.00;-18063.88;4986442;28;20121;-85
2023/03/27 03:44:29;;;;;;;10.13;3.25;;;;;;;1.41;100.00;-18065.53;4988163;28;20425;-83
2023/03/27 03:46:54;;;;;;;10.30;3.47;;;;;;;1.30;100.00;-18062.50;4987166;28;20129;-83
2023/03/27 03:49:20;;;;;;;14.85;3.17;;;;;;;1.30;100.00;-18062.50;4983740;28;20049;-84
2023/03/27 03:51:45;;;;;;;12.23;3.05;;;;;;;1.33;100.00;-18063.31;5001999;28;20054;-84
2023/03/27 03:54:11;;;;;;;11.70;2.90;;;;;;;1.43;100.00;-18066.09;4986764;28;20038;-83
2023/03/27 03:56:40;;;;;;;11.40;2.50;;;;;;;1.46;100.00;-18066.91;4981725;28;20457;-83
2023/03/27 03:59:15;;;;;;;13.23;3.50;;;;;;;1.40;100.00;-18065.25;4981980;28;20042;-84
2023/03/27 04:01:40;;;;;;;13.25;2.90;;;;;;;1.42;100.00;-18065.81;4984655;28;20552;-85
2023/03/27 04:04:08;;;;;;;11.93;3.45;;;;;;;1.48;100.00;-18067.47;4996563;28;20046;-83
2023/03/27 04:06:36;;;;;;;8.75;2.45;;;;;;;1.45;100.00;-18066.63;4986150;28;20054;-84
2023/03/27 04:09:02;;;;;;;11.15;3.28;;;;;;;1.45;100.00;-18066.63;4991827;28;20121;-84
2023/03/27 04:11:28;;;;;;;8.95;2.88;;;;;;;1.41;100.00;-18065.53;4986512;28;20093;-84
2023/03/27 04:13:53;;;;;;;13.73;3.78;;;;;;;1.43;100.00;-18065.94;4995373;28;20568;-84
2023/03/27 04:16:20;;;;;;;9.02;3.17;;;;;;;1.42;100.00;-18065.66;4987534;28;20493;-85
2023/03/27 04:18:49;;;;;;;9.65;3.15;;;;;;;1.43;100.00;-18065.94;4985029;28;20069;-84
2023/03/27 04:21:14;;;;;;;;;;;;;;;1.50;100.00;-18067.88;4988643;28;20125;-83
2023/03/27 04:23:41;;;;;;;10.65;3.47;;;;;;;1.33;100.00;-18063.47;4986188;28;19917;-84
2023/03/27 04:26:07;;;;;;;13.25;3.40;;;;;;;1.39;100.00;-18064.84;4987170;28;20049;-83
2023/03/27 04:28:33;;;;;;;7.80;3.17;;;;;;;1.33;100.00;-18063.31;4999112;28;20038;-86
2023/03/27 04:31:05;;;;;;;11.85;3.25;;;;;;;1.43;100.00;-18066.09;4997571;28;20046;-86
2023/03/27 04:33:34;;;;;;;6.45;3.47;;;;;;;1.42;100.00;-18065.81;4981561;28;20038;-86
2023/03/27 04:36:01;;;;;;;13.93;4.30;;;;;;;1.40;100.00;-18065.13;4985086;28;20042;-85
2023/03/27 04:38:30;;;;;;;9.15;3.38;;;;;;;1.39;100.00;-18064.84;4992539;28;21505;-85
2023/03/27 04:40:56;;;;;;;9.02;3.03;;;;;;;1.40;100.00;-18065.25;4984175;28;20041;-84
2023/03/27 04:43:24;;;;;;;8.48;3.17;;;;;;;1.46;100.00;-18066.91;4982240;28;20030;-85
2023/03/27 04:45:52;;;;;;;9.95;3.78;;;;;;;1.46;100.00;-18066.78;4999076;28;20053;-86
2023/03/27 04:48:18;;;;;;;7.95;2.92;;;;;;;1.49;100.00;-18067.75;4980657;28;20045;-86
2023/03/27 04:50:48;;;;;;;15.27;3.75;;;;;;;1.55;100.00;-18069.41;4983649;28;20051;-86
2023/03/27 04:53:13;;;;;;;6.80;2.70;;;;;;;1.51;100.00;-18068.31;4983372;28;20625;-86
2023/03/27 04:55:39;;;;;;;11.27;2.80;;;;;;;1.48;100.00;-18067.34;4984395;28;20141;-86
2023/03/27 04:58:05;;;;;;;12.10;3.55;;;;;;;1.51;100.00;-18068.31;4994005;28;20153;-86
2023/03/27 05:00:30;;;;;;;9.35;2.55;;;;;;;1.57;100.00;-18069.81;4995011;28;20046;-84
2023/03/27 05:02:56;;;;;;;6.85;2.17;;;;;;;1.58;100.00;-18070.09;4995498;28;20734;-86
2023/03/27 05:05:21;;;;;;;9.52;2.60;;;;;;;1.56;100.00;-18069.53;4998956;28;20118;-86
2023/03/27 05:07:48;;;;;;;10.43;2.97;;;;;;;1.57;100.00;-18069.97;4984297;28;20050;-86
2023/03/27 05:10:16;;;;;;;8.10;2.33;;;;;;;1.55;100.00;-18069.41;4985475;28;20413;-86
2023/03/27 05:12:46;;;;;;;4.72;2.28;;;;;;;1.54;100.00;-18069.00;4983294;28;20047;-85
2023/03/27 05:15:13;;;;;;;9.30;2.47;;;;;;;1.66;100.00;-18072.19;4996150;28;20042;-85
2023/03/27 05:17:40;;;;;;;4.88;1.90;;;;;;;1.62;100.00;-18071.22;4997095;28;20046;-85
2023/03/27 05:20:07;;;;;;;6.35;1.90;;;;;;;1.64;100.00;-18071.75;5004379;28;20042;-87
2023/03/27 05:22:33;;;;;;;9.23;2.38;;;;;;;1.69;100.00;-18073.00;4987710;28;20038;-88
2023/03/27 05:25:00;;;;;;;9.32;2.50;;;;;;;1.70;100.00;-18073.28;4986883;28;20042;-87
2023/03/27 05:27:26;;;;;;;8.23;2.03;;;;;;;1.69;100.00;-18073.16;4989943;28;20060;-86
2023/03/27 05:29:51;;;;;;;9.50;2.50;;;;;;;1.70;100.00;-18073.28;4993447;28;20101;-84
2023/03/27 05:32:16;;;;;;;10.13;2.58;;;;;;;1.73;100.00;-18074.13;4994099;28;20049;-83
2023/03/27 05:34:42;;;;;;;12.57;3.13;;;;;;;1.66;100.00;-18072.31;4995707;28;20042;-86
2023/03/27 05:37:08;;;;;;;7.05;1.85;;;;;;;1.75;100.00;-18074.66;4992704;28;20054;-85
2023/03/27 05:39:35;;;;;;;9.68;2.38;;;;;;;1.75;100.00;-18074.66;4994944;28;20114;-86
2023/03/27 05:42:00;;;;;;;9.90;2.22;;;;;;;1.71;100.00;-18073.56;4994294;28;20120;-84
2023/03/27 05:44:26;;;;;;;14.30;3.67;;;;;;;1.75;100.00;-18074.81;4996295;28;20058;-85
2023/03/27 05:46:51;;;;;;;11.18;3.53;;;;;;;1.80;100.00;-18076.06;4996184;28;20065;-84
2023/03/27 05:49:16;;;;;;;9.85;3.50;;;;;;;1.76;100.00;-18075.09;4987349;28;20046;-85
2023/03/27 05:51:42;;;;;;;12.07;4.38;;;;;;;1.76;100.00;-18074.94;4988564;28;20046;-86
2023/03/27 05:54:07;;;;;;;11.15;5.43;;;;;;;1.83;100.00;-18076.75;5001263;28;20373;-85
2023/03/27 05:56:33;;;;;;;38.28;17.60;;;;;;;1.87;100.00;-18077.84;5001744;28;20034;-85
2023/03/27 05:58:58;;;;;;;22.55;8.75;;;;;;;1.95;100.00;-18080.19;5002814;28;20069;-86
2023/03/27 06:01:24;;;;;;;37.58;18.00;;;;;;;1.86;100.00;-18077.72;5003186;28;20211;-85
2023/03/27 06:03:54;;;;;;;22.70;12.30;;;;;;;1.88;100.00;-18078.13;4999673;28;20065;-85
2023/03/27 06:06:19;;;;;;;13.35;6.45;;;;;;;1.85;100.00;-18077.44;4998655;28;20425;-84
2023/03/27 06:08:45;;;;;;;12.57;5.00;;;;;;;1.77;100.00;-18075.22;4994465;28;20053;-84
2023/03/27 06:11:11;;;;;;;9.85;3.80;;;;;;;1.75;100.00;-18074.81;4997025;28;20042;-84
2023/03/27 06:13:37;;;;;;;8.50;3.28;;;;;;;1.76;100.00;-18075.09;5001871;28;20042;-84
2023/03/27 06:16:04;;;;;;;8.00;3.53;;;;;;;1.72;100.00;-18073.84;4996300;28;20060;-84
2023/03/27 06:18:31;;;;;;;7.30;3.20;;;;;;;1.73;100.00;-18074.25;5009525;28;20050;-84
2023/03/27 06:20:57;;;;;;;14.38;4.30;;;;;;;1.77;100.00;-18075.34;4994988;28;20120;-84
2023/03/27 06:23:22;;;;;;;10.82;4.47;;;;;;;1.80;100.00;-18076.06;4997152;28;20517;-84
2023/03/27 06:25:48;;;;;;;15.50;4.65;;;;;;;1.77;100.00;-18075.22;4996551;28;20043;-84
2023/03/27 06:28:16;;;;;;;14.85;6.07;;;;;;;1.81;100.00;-18076.31;4993529;28;20082;-84
2023/03/27 06:30:41;;;;;;;7.80;3.40;;;;;;;1.78;100.00;-18075.50;4996407;28;20046;-84
2023/03/27 06:33:07;;;;;;;15.07;5.40;;;;;;;1.83;100.00;-18076.88;4995816;28;20110;-84
2023/03/27 06:35:34;;;;;;;15.20;6.30;;;;;;;1.85;100.00;-18077.44;4991342;28;20990;-85
2023/03/27 06:38:01;;;;;;;13.50;5.22;;;;;;;1.84;100.00;-18077.00;4994354;28;20042;-84
2023/03/27 06:40:28;;;;;;;13.07;4.13;;;;;;;1.85;100.00;-18077.44;4990004;28;20050;-84
2023/03/27 06:43:02;;;;;;;8.75;4.15;;;;;;;1.92;100.00;-18079.38;4994808;28;20046;-84
2023/03/27 06:45:32;;;;;;;12.27;4.20;;;;;;;1.93;100.00;-18079.66;4994671;28;20043;-84
2023/03/27 06:48:01;;;;;;;12.45;5.32;;;;;;;1.99;100.00;-18081.31;4993084;28;20053;-84
2023/03/27 06:50:27;;;;;;;13.77;5.13;;;;;;;2.02;100.00;-18082.13;4989861;28;20046;-85
2023/03/27 06:52:56;;;;;;;10.25;4.38;;;;;;;2.08;100.00;-18083.53;4991473;28;20073;-85
2023/03/27 06:55:23;;;;;;;9.65;3.00;;;;;;;2.10;100.00;-18084.06;4993573;28;20486;-84
2023/03/27 06:57:51;;;;;;;11.55;3.67;;;;;;;2.14;100.00;-18085.19;4993792;28;20802;-84
2023/03/27 07:00:21;;;;;;;9.93;4.23;;;;;;;2.18;100.00;-18086.44;5008478;28;20042;-84
2023/03/27 07:03:01;;;;;;;4.78;2.30;;;;;;;2.20;100.00;-18086.84;5006195;28;20278;-85
2023/03/27 07:05:28;;;;;;;8.02;2.20;;;;;;;2.23;100.00;-18087.66;4989468;28;20500;-85
2023/03/27 07:07:55;;;;;;;4.15;2.22;;;;;;;2.26;100.00;-18088.63;4989485;28;20096;-84
2023/03/27 07:10:22;;;;;;;5.75;2.00;;;;;;;2.38;100.00;-18091.69;4990184;28;20441;-85
2023/03/27 07:12:50;;;;;;;6.90;2.30;;;;;;;2.41;100.00;-18092.50;4991058;28;20046;-85
2023/03/27 07:15:16;;;;;;;6.00;2.72;;;;;;;2.49;100.00;-18094.88;4991559;28;20042;-85
2023/03/27 07:17:43;;;;;;;6.68;2.33;;;;;;;2.59;100.00;-18097.50;5005342;28;20574;-85
2023/03/27 07:20:10;;;;;;;6.75;2.55;;;;;;;2.60;100.00;-18097.63;5001392;28;20471;-85
2023/03/27 07:22:36;;;;;;;8.52;2.50;;;;;;;2.68;100.00;-18099.97;4983974;28;20560;-85
2023/03/27 07:25:05;;;;;;;7.60;2.63;;;;;;;2.78;100.00;-18102.59;4989939;28;20133;-85
2023/03/27 07:27:30;;;;;;;4.88;1.98;;;;;;;2.86;100.00;-18104.81;4987721;28;20119;-85
2023/03/27 07:29:58;;;;;;;6.47;2.28;;;;;;;2.90;100.00;-18105.94;4990267;28;20038;-85
2023/03/27 07:32:23;;;;;;;4.72;1.92;;;;;;;2.96;100.00;-18107.44;4985566;28;20046;-85
2023/03/27 07:34:49;;;;;;;5.22;1.80;;;;;;;2.98;100.00;-18107.88;4989543;28;20607;-85
2023/03/27 07:37:14;;;;;;;5.97;1.80;;;;;;;3.00;100.00;-18108.41;4990358;28;20046;-84
2023/03/27 07:39:40;;;;;;;7.63;2.20;;;;;;;3.07;100.00;-18110.34;5003655;28;20038;-85
2023/03/27 07:42:07;;;;;;;7.15;1.88;;;;;;;3.11;100.00;-18111.59;4988307;28;20049;-85
2023/03/27 07:44:33;;;;;;;5.38;2.10;;;;;;;3.14;100.00;-18112.28;4988219;28;20051;-84
2023/03/27 07:46:59;;;;;;;8.63;1.73;;;;;;;3.17;100.00;-18113.13;4981243;28;20038;-85
2023/03/27 07:49:25;;;;;;;9.45;2.13;;;;;;;3.21;100.00;-18114.22;5003831;28;20494;-85
2023/03/27 07:51:51;;;;;;;6.50;1.90;;;;;;;3.33;100.00;-18117.53;4984957;28;20124;-84
2023/03/27 07:54:16;;;;;;;4.95;1.92;;;;;;;3.28;100.00;-18116.16;4980574;28;20030;-85
2023/03/27 07:56:42;;;;;;;7.47;2.00;;;;;;;3.41;100.00;-18119.47;4979067;28;20053;-85
2023/03/27 07:59:07;;;;;;;6.93;1.98;;;;;;;3.44;100.00;-18120.44;4988363;28;20042;-85
2023/03/27 08:01:33;;;;;;;8.13;2.00;;;;;;;3.50;100.00;-18122.09;4985052;28;20065;-84
2023/03/27 08:03:59;;;;;;;5.82;1.92;;;;;;;3.58;100.00;-18124.16;4986143;28;20453;-85
2023/03/27 08:06:25;;;;;;;6.60;1.95;;;;;;;3.64;100.00;-18125.69;4986234;28;20046;-85
2023/03/27 08:08:51;;;;;;;6.45;1.90;;;;;;;3.66;100.00;-18126.25;4989451;28;20421;-84
2023/03/27 08:11:17;;;;;;;9.13;2.00;;;;;;;3.80;100.00;-18130.13;5007904;28;20113;-84
2023/03/27 08:13:43;;;;;;;6.63;2.28;;;;;;;3.86;100.00;-18131.63;4990729;28;20046;-85
2023/03/27 08:16:14;;;;;;;6.20;1.52;;;;;;;3.90;100.00;-18132.88;4992699;28;20075;-85
2023/03/27 08:18:39;;;;;;;9.63;2.03;;;;;;;3.95;100.00;-18134.13;4987854;28;20050;-85
2023/03/27 08:21:07;;;;;;;7.80;2.30;;;;;;;3.94;100.00;-18133.84;4993198;28;20125;-84
2023/03/27 08:23:33;;;;;;;11.18;2.25;;;;;;;3.98;100.00;-18134.94;4988422;28;20038;-85
2023/03/27 08:25:59;;;;;;;6.63;1.67;;;;;;;4.05;100.00;-18136.88;4985178;28;20041;-84
2023/03/27 08:28:31;;;;;;;7.30;2.15;;;;;;;4.16;100.00;-18139.91;5000653;28;20642;-84
2023/03/27 08:30:57;;;;;;;9.23;2.10;;;;;;;4.17;100.00;-18140.19;5002244;28;20547;-85
2023/03/27 08:33:26;;;;;;;5.35;1.85;;;;;;;4.27;100.00;-18142.97;4985027;28;20628;-85
2023/03/27 08:35:53;;;;;;;7.07;1.67;;;;;;;4.28;100.00;-18143.22;4984960;28;20038;-85
2023/03/27 08:38:19;;;;;;;7.75;2.22;;;;;;;4.32;100.00;-18144.06;4984444;28;20042;-85
2023/03/27 08:40:50;;;;;;;7.13;1.85;;;;;;;4.38;100.00;-18145.88;4984034;28;20049;-86
2023/03/27 08:43:20;;;;;;;9.02;2.20;;;;;;;4.50;100.00;-18149.03;4985457;28;20387;-86
2023/03/27 08:45:52;;;;;;;7.82;1.58;;;;;;;4.60;100.00;-18151.66;4988633;28;20490;-86
2023/03/27 08:48:50;;;;;;;4.40;1.45;;;;;;;4.67;100.00;-18153.72;4988243;28;20577;-86
2023/03/27 08:51:30;;;;;;;8.70;1.77;;;;;;;4.73;100.00;-18155.38;4981739;28;20043;-86
2023/03/27 08:54:13;;;;;;;5.22;1.35;;;;;;;4.75;100.00;-18155.94;4999693;28;20422;-86
2023/03/27 08:56:38;;;;;;;5.50;1.50;;;;;;;4.80;100.00;-18157.03;4984672;28;20042;-86
2023/03/27 08:59:14;;;;;;;8.40;2.03;;;;;;;4.96;100.00;-18161.47;4998914;28;20039;-86
2023/03/27 09:02:13;;;;;;;4.75;1.45;;;;;;;4.98;100.00;-18162.16;4984103;28;20112;-86
2023/03/27 09:04:44;;;;;;;6.07;1.80;;;;;;;5.10;100.00;-18165.19;4983368;28;20042;-86
2023/03/27 09:07:20;;;;;;;8.73;2.42;;;;;;;5.23;100.00;-18168.63;4984696;28;20621;-86
2023/03/27 09:09:54;;;;;;;8.23;1.60;;;;;;;5.21;100.00;-18168.22;4995662;28;20042;-86
2023/03/27 09:12:31;;;;;;;6.85;1.67;;;;;;;5.23;100.00;-18168.63;4982173;28;20043;-87
2023/03/27 09:15:24;;;;;;;9.40;1.50;;;;;;;5.19;100.00;-18167.69;4986622;28;20049;-87
2023/03/27 09:18:03;;;;;;;7.78;1.42;;;;;;;5.12;100.00;-18165.75;4973811;28;20073;-85
2023/03/27 09:20:51;;;;;;;4.75;1.67;;;;;;;5.18;100.00;-18167.53;4985883;28;20034;-85
2023/03/27 09:23:29;;;;;;;4.20;1.33;;;;;;;5.09;100.00;-18164.91;4987745;28;20035;-86
2023/03/27 09:25:58;;;;;;;6.32;1.40;;;;;;;5.10;100.00;-18165.31;4989556;28;20320;-86
2023/03/27 09:28:34;;;;;;;;;;;;;;;5.14;100.00;-18166.44;4989140;28;20447;-85
2023/03/27 09:31:23;;;;;;;6.20;1.70;;;;;;;4.98;100.00;-18162.16;4990912;28;19921;-85
2023/03/27 09:33:48;;;;;;;;;;;;;;;5.10;100.00;-18165.31;4987355;28;20051;-86
2023/03/27 09:36:14;;;;;;;5.03;1.70;;;;;;;5.22;100.00;-18168.38;5006589;28;19964;-85
2023/03/27 09:38:49;;;;;;;4.78;1.17;;;;;;;5.45;100.00;-18174.56;4991095;28;20521;-85
2023/03/27 09:41:27;;;;;;;5.00;1.25;;;;;;;5.69;100.00;-18181.19;4990928;28;20066;-87
2023/03/27 09:44:09;;;;;;;4.68;1.15;;;;;;;5.88;100.00;-18186.31;4992325;28;20046;-86
2023/03/27 09:46:38;;;;;;;5.60;1.00;;;;;;;5.93;100.00;-18187.69;4992750;28;20092;-87
2023/03/27 09:49:19;;;;;;;2.67;0.70;;;;;;;5.80;100.00;-18184.09;4988536;28;20094;-87
2023/03/27 09:51:48;;;;;;;4.38;0.90;;;;;;;5.62;100.00;-18179.25;4986110;28;20073;-87
2023/03/27 09:54:16;;;;;;;6.60;1.40;;;;;;;5.47;100.00;-18175.25;4987771;28;20117;-87
2023/03/27 09:57:03;;;;;;;3.70;1.08;;;;;;;5.53;100.00;-18176.91;4991891;28;20045;-87
2023/03/27 09:59:33;;;;;;;4.47;1.10;;;;;;;5.85;100.00;-18185.47;4991599;28;20629;-87
2023/03/27 10:02:08;;;;;;;4.38;1.30;;;;;;;5.96;100.00;-18188.50;4984347;28;20046;-87
2023/03/27 10:04:34;;;;;;;6.82;1.10;;;;;;;6.27;100.00;-18196.78;4988771;28;20541;-87
2023/03/27 10:07:07;;;;;;;3.15;1.00;;;;;;;6.26;100.00;-18196.50;5005873;28;20042;-87
2023/03/27 10:09:37;;;;;;;5.22;0.98;;;;;;;6.48;100.00;-18202.59;5004925;28;20050;-86
2023/03/27 10:12:08;;;;;;;6.80;1.05;;;;;;;6.52;100.00;-18203.69;5009125;28;20046;-87
2023/03/27 10:14:36;;;;;;;4.95;0.93;;;;;;;6.40;100.00;-18200.38;4989477;28;20042;-87
2023/03/27 10:17:03;;;;;;;2.53;0.70;;;;;;;6.36;100.00;-18199.28;4998457;28;20034;-86
2023/03/27 10:19:37;;;;;;;7.05;1.00;;;;;;;5.88;100.00;-18186.31;5001328;28;20080;-86
2023/03/27 10:22:15;;;;;;;5.38;1.02;;;;;;;5.46;100.00;-18174.84;4986753;28;20125;-86
2023/03/27 10:24:44;;;;;;;3.72;0.90;;;;;;;5.06;100.00;-18164.22;4988638;28;20065;-86
2023/03/27 10:27:17;;;;;;;5.53;1.20;;;;;;;4.67;100.00;-18153.59;4982559;28;20086;-86
2023/03/27 10:29:43;;;;;;;4.47;0.85;;;;;;;4.41;100.00;-18146.56;4981601;28;20072;-87
2023/03/27 10:32:09;;;;;;;4.65;1.30;;;;;;;4.35;100.00;-18144.91;4999482;28;20187;-86
2023/03/27 10:34:52;;;;;;;3.97;1.20;;;;;;;4.54;100.00;-18150.13;4986167;28;20497;-86
2023/03/27 10:37:26;;;;;;;6.90;1.13;;;;;;;4.74;100.00;-18155.53;4984292;28;20042;-86
2023/03/27 10:39:54;;;;;;;2.13;0.80;;;;;;;4.61;100.00;-18152.06;4988098;28;20573;-85
2023/03/27 10:42:21;;;;;;;3.40;0.82;;;;;;;4.75;100.00;-18155.81;4999341;28;20046;-85
2023/03/27 10:44:48;;;;;;;3.00;0.70;;;;;;;4.90;100.00;-18159.81;4987854;28;20048;-86
2023/03/27 10:47:23;;;;;;;2.97;0.93;;;;;;;5.01;100.00;-18162.84;5005173;28;20073;-85
2023/03/27 10:50:20;;;;;;;3.88;0.90;;;;;;;5.13;100.00;-18166.03;4987932;28;20177;-86
2023/03/27 10:53:01;;;;;;;3.33;0.70;;;;;;;5.15;100.00;-18166.56;4981904;28;22207;-87
2023/03/27 10:55:32;;;;;;;3.47;0.98;;;;;;;5.37;100.00;-18172.50;4998993;28;20047;-87
2023/03/27 10:58:02;;;;;;;5.50;1.00;;;;;;;5.53;100.00;-18176.78;4986236;28;20505;-85
2023/03/27 11:00:36;;;;;;;4.25;1.00;;;;;;;5.62;100.00;-18179.25;4986211;28;20405;-86
2023/03/27 11:03:53;;;;;;;7.05;1.80;;;;;;;5.82;100.00;-18184.78;4992380;28;20042;-86
2023/03/27 11:06:23;;;;;;;4.07;1.10;;;;;;;5.88;100.00;-18186.31;4958601;28;20520;-86
2023/03/27 11:09:14;;;;;;;3.42;0.85;;;;;;;5.91;100.00;-18187.00;4982774;28;20046;-86
2023/03/27 11:11:47;;;;;;;2.80;0.80;;;;;;;6.07;100.00;-18191.41;4985341;28;20042;-85
2023/03/27 11:14:49;;;;;;;5.30;1.10;;;;;;;6.21;100.00;-18195.13;4987974;28;20129;-86
2023/03/27 11:17:19;;;;;;;5.25;1.02;;;;;;;6.30;100.00;-18197.75;4971200;28;20414;-88
2023/03/27 11:19:51;;;;;;;5.10;1.00;;;;;;;6.12;100.00;-18192.66;4986547;28;20045;-85
2023/03/27 11:22:50;;;;;;;3.15;0.95;;;;;;;5.87;100.00;-18186.03;4987952;28;20046;-85
2023/03/27 11:25:38;;;;;;;5.28;0.90;;;;;;;5.55;100.00;-18177.47;4979657;28;20042;-85
2023/03/27 11:28:14;;;;;;;2.53;0.75;;;;;;;4.57;100.00;-18150.84;4998221;28;20043;-86
2023/03/27 11:30:55;;;;;;;3.30;0.73;;;;;;;3.98;100.00;-18134.94;4980133;28;20093;-85
2023/03/27 11:33:28;;;;;;;2.17;0.60;;;;;;;3.65;100.00;-18125.97;4986138;28;20105;-86
2023/03/27 11:36:10;;;;;;;3.50;0.90;;;;;;;3.15;100.00;-18112.69;4987859;28;20057;-86
2023/03/27 11:38:43;;;;;;;5.85;1.13;;;;;;;3.09;100.00;-18110.91;4987662;28;20034;-87
2023/03/27 11:41:13;;;;;;;4.03;1.02;;;;;;;3.15;100.00;-18112.69;4992814;28;20181;-85